createdAt,value
2023-04-13T00:00:16.315Z,6.80
2023-04-13T00:02:45.380Z,6.80
2023-04-13T00:05:14.019Z,6.80
2023-04-13T00:07:43.350Z,6.80
2023-04-13T00:10:12.110Z,6.70
2023-04-13T00:12:43.256Z,6.70
2023-04-13T00:15:11.692Z,6.60
2023-04-13T00:17:39.809Z,6.60
2023-04-13T00:20:12.978Z,6.60
2023-04-13T00:22:41.515Z,6.60
2023-04-13T00:25:10.613Z,6.60
2023-04-13T00:27:39.673Z,6.50
2023-04-13T00:30:11.458Z,6.60
2023-04-13T00:32:42.759Z,6.50
2023-04-13T00:35:12.781Z,6.50
2023-04-13T00:37:43.406Z,6.50
2023-04-13T00:40:13.669Z,6.40
2023-04-13T00:42:44.122Z,6.30
2023-04-13T00:45:14.705Z,6.20
2023-04-13T00:47:46.999Z,6.10
2023-04-13T00:50:18.129Z,6.00
2023-04-13T00:52:47.246Z,6.10
2023-04-13T00:55:21.117Z,6.10
2023-04-13T00:57:52.668Z,6.20
2023-04-13T01:00:24.887Z,6.20
2023-04-13T01:02:53.647Z,6.10
2023-04-13T01:05:23.394Z,6.10
2023-04-13T01:08:01.026Z,6.10
2023-04-13T01:10:35.087Z,6.10
2023-04-13T01:13:11.420Z,6.00
2023-04-13T01:15:47.104Z,6.00
2023-04-13T01:18:17.452Z,6.10
2023-04-13T01:20:47.628Z,6.00
2023-04-13T01:23:28.514Z,6.00
2023-04-13T01:25:59.627Z,6.00
2023-04-13T01:28:30.029Z,6.00
2023-04-13T01:31:00.647Z,6.00
2023-04-13T01:33:30.970Z,6.00
2023-04-13T01:36:02.574Z,5.90
2023-04-13T01:38:31.628Z,5.90
2023-04-13T01:40:59.810Z,5.90
2023-04-13T01:43:31.263Z,5.90
2023-04-13T01:46:04.854Z,5.90
2023-04-13T01:48:40.527Z,5.90
2023-04-13T01:51:13.568Z,5.90
2023-04-13T01:53:45.030Z,5.90
2023-04-13T01:56:13.984Z,5.90
2023-04-13T01:58:44.633Z,5.80
2023-04-13T02:01:12.772Z,5.80
2023-04-13T02:03:43.446Z,5.80
2023-04-13T02:06:12.209Z,5.90
2023-04-13T02:08:40.749Z,5.90
2023-04-13T02:11:10.571Z,5.90
2023-04-13T02:13:38.681Z,6.00
2023-04-13T02:16:09.176Z,6.00
2023-04-13T02:18:37.623Z,5.90
2023-04-13T02:21:09.346Z,5.90
2023-04-13T02:23:38.108Z,5.80
2023-04-13T02:26:08.589Z,5.80
2023-04-13T02:28:37.045Z,5.70
2023-04-13T02:31:06.217Z,5.80
2023-04-13T02:33:36.530Z,5.70
2023-04-13T02:36:05.962Z,5.70
2023-04-13T02:38:34.364Z,5.70
2023-04-13T02:41:02.818Z,5.80
2023-04-13T02:43:31.498Z,5.70
2023-04-13T02:45:59.813Z,5.80
2023-04-13T02:48:28.558Z,5.70
2023-04-13T02:50:58.005Z,5.70
2023-04-13T02:53:26.520Z,5.70
2023-04-13T02:55:55.563Z,5.70
2023-04-13T02:58:24.042Z,5.60
2023-04-13T03:00:52.231Z,5.50
2023-04-13T03:03:20.647Z,5.50
2023-04-13T03:05:50.874Z,5.60
2023-04-13T03:08:20.412Z,5.50
2023-04-13T03:10:48.491Z,5.40
2023-04-13T03:13:16.828Z,5.30
2023-04-13T03:15:45.280Z,5.30
2023-04-13T03:18:14.096Z,5.30
2023-04-13T03:20:42.614Z,5.30
2023-04-13T03:23:10.705Z,5.20
2023-04-13T03:25:41.184Z,5.20
2023-04-13T03:28:09.287Z,5.30
2023-04-13T03:30:37.917Z,5.30
2023-04-13T03:33:06.538Z,5.30
2023-04-13T03:35:34.631Z,5.20
2023-04-13T03:38:02.706Z,5.30
2023-04-13T03:40:30.808Z,5.30
2023-04-13T03:43:00.907Z,5.40
2023-04-13T03:45:29.107Z,5.40
2023-04-13T03:47:57.639Z,5.40
2023-04-13T03:50:25.820Z,5.30
2023-04-13T03:52:54.214Z,5.30
2023-04-13T03:55:23.441Z,5.30
2023-04-13T03:57:51.683Z,5.20
2023-04-13T04:00:21.385Z,5.20
2023-04-13T04:02:49.981Z,5.20
2023-04-13T04:05:18.637Z,5.10
2023-04-13T04:07:46.888Z,5.20
2023-04-13T04:10:17.712Z,5.20
2023-04-13T04:12:46.126Z,5.20
2023-04-13T04:15:14.210Z,5.20
2023-04-13T04:17:43.709Z,5.20
2023-04-13T04:20:12.810Z,5.10
2023-04-13T04:22:41.893Z,5.20
2023-04-13T04:25:10.520Z,5.20
2023-04-13T04:27:39.209Z,5.30
2023-04-13T04:30:11.108Z,5.30
2023-04-13T04:32:40.864Z,5.30
2023-04-13T04:35:14.334Z,5.20
2023-04-13T04:37:42.836Z,5.30
2023-04-13T04:40:13.015Z,5.20
2023-04-13T04:42:41.407Z,5.20
2023-04-13T04:45:12.106Z,5.20
2023-04-13T04:47:43.500Z,5.20
2023-04-13T04:50:14.761Z,5.20
2023-04-13T04:52:43.208Z,5.20
2023-04-13T04:55:11.758Z,5.40
2023-04-13T04:57:40.089Z,5.40
2023-04-13T05:00:15.265Z,5.50
2023-04-13T05:02:44.317Z,5.70
2023-04-13T05:05:14.043Z,6.00
2023-04-13T05:07:42.240Z,6.30
2023-04-13T05:10:11.271Z,6.30
2023-04-13T05:12:39.338Z,6.40
2023-04-13T05:15:09.041Z,6.60
2023-04-13T05:17:37.455Z,6.80
2023-04-13T05:20:07.636Z,7.10
2023-04-13T05:22:37.560Z,7.40
2023-04-13T05:25:06.967Z,7.80
2023-04-13T05:27:35.036Z,8.10
2023-04-13T05:30:04.012Z,8.40
2023-04-13T05:32:35.375Z,8.00
2023-04-13T05:35:04.731Z,8.20
2023-04-13T05:37:33.119Z,8.70
2023-04-13T05:40:03.141Z,8.80
2023-04-13T05:42:31.273Z,8.80
2023-04-13T05:44:59.377Z,9.20
2023-04-13T05:47:27.513Z,9.30
2023-04-13T05:49:55.605Z,9.10
2023-04-13T05:52:24.122Z,9.00
2023-04-13T05:54:52.673Z,8.90
2023-04-13T05:57:22.187Z,9.10
2023-04-13T05:59:51.846Z,9.00
2023-04-13T06:02:21.097Z,9.40
2023-04-13T06:04:53.630Z,8.90
2023-04-13T06:07:23.175Z,8.70
2023-04-13T06:09:51.698Z,9.40
2023-04-13T06:12:21.175Z,9.00
2023-04-13T06:14:49.563Z,8.50
2023-04-13T06:17:18.035Z,9.60
2023-04-13T06:19:46.653Z,9.70
2023-04-13T06:22:14.743Z,9.50
2023-04-13T06:24:42.863Z,9.10
2023-04-13T06:27:11.262Z,9.70
2023-04-13T06:29:41.169Z,9.30
2023-04-13T06:32:09.449Z,9.20
2023-04-13T06:34:37.753Z,9.50
2023-04-13T06:37:06.097Z,9.60
2023-04-13T06:39:37.736Z,9.70
2023-04-13T06:42:06.771Z,9.90
2023-04-13T06:44:34.879Z,9.90
2023-04-13T06:47:05.843Z,10.60
2023-04-13T06:49:34.449Z,10.40
2023-04-13T06:52:02.980Z,10.20
2023-04-13T06:54:31.555Z,10.60
2023-04-13T06:57:01.780Z,10.70
2023-04-13T06:59:30.241Z,10.80
2023-04-13T07:01:58.483Z,11.10
2023-04-13T07:04:29.660Z,10.70
2023-04-13T07:07:00.016Z,11.00
2023-04-13T07:09:28.391Z,10.90
2023-04-13T07:11:57.963Z,10.80
2023-04-13T07:14:26.191Z,10.80
2023-04-13T07:16:54.325Z,11.10
2023-04-13T07:19:23.779Z,10.90
2023-04-13T07:21:53.569Z,10.80
2023-04-13T07:24:21.943Z,10.80
2023-04-13T07:26:50.027Z,11.00
2023-04-13T07:29:18.219Z,11.20
2023-04-13T07:31:48.452Z,11.20
2023-04-13T07:34:16.783Z,11.30
2023-04-13T07:36:45.099Z,11.50
2023-04-13T07:39:14.559Z,11.60
2023-04-13T07:41:42.739Z,11.60
2023-04-13T07:44:11.394Z,11.80
2023-04-13T07:46:39.881Z,11.70
2023-04-13T07:49:08.049Z,11.60
2023-04-13T07:51:36.407Z,12.20
2023-04-13T07:54:05.008Z,12.30
2023-04-13T07:56:36.458Z,12.40
2023-04-13T07:59:04.611Z,12.60
2023-04-13T08:01:33.066Z,12.70
2023-04-13T08:04:01.299Z,12.70
2023-04-13T08:06:29.616Z,12.50
2023-04-13T08:08:57.922Z,12.80
2023-04-13T08:11:26.204Z,12.60
2023-04-13T08:13:56.366Z,12.70
2023-04-13T08:16:24.630Z,13.00
2023-04-13T08:18:53.468Z,13.10
2023-04-13T08:21:21.856Z,13.20
2023-04-13T08:23:49.934Z,12.90
2023-04-13T08:26:19.884Z,13.30
2023-04-13T08:28:50.779Z,13.40
2023-04-13T08:31:20.724Z,13.70
2023-04-13T08:33:48.817Z,13.50
2023-04-13T08:36:17.473Z,13.20
2023-04-13T08:38:46.905Z,13.30
2023-04-13T08:41:17.273Z,13.00
2023-04-13T08:43:48.303Z,13.30
2023-04-13T08:46:21.711Z,13.70
2023-04-13T08:48:54.162Z,13.60
2023-04-13T08:51:23.816Z,13.70
2023-04-13T08:53:55.198Z,13.90
2023-04-13T08:56:34.090Z,13.60
2023-04-13T08:59:12.943Z,13.50
2023-04-13T09:01:43.066Z,13.20
2023-04-13T09:04:13.739Z,13.30
2023-04-13T09:06:45.053Z,13.50
2023-04-13T09:09:14.921Z,13.80
2023-04-13T09:11:45.727Z,13.90
2023-04-13T09:14:13.905Z,13.90
2023-04-13T09:16:45.116Z,14.30
2023-04-13T09:19:13.939Z,14.30
2023-04-13T09:21:43.287Z,14.30
2023-04-13T09:24:13.072Z,14.10
2023-04-13T09:26:42.463Z,14.00
2023-04-13T09:29:14.159Z,14.60
2023-04-13T09:31:45.678Z,14.50
2023-04-13T09:34:14.398Z,14.80
2023-04-13T09:36:54.251Z,14.50
2023-04-13T09:39:28.581Z,14.10
2023-04-13T09:41:58.138Z,14.40
2023-04-13T09:44:31.523Z,14.50
2023-04-13T09:47:02.137Z,14.20
2023-04-13T09:49:39.099Z,14.30
2023-04-13T09:52:08.342Z,14.30
2023-04-13T09:54:39.685Z,14.10
2023-04-13T09:57:08.177Z,13.90
2023-04-13T09:59:36.681Z,13.70
2023-04-13T10:02:07.261Z,14.30
2023-04-13T10:04:36.638Z,14.80
2023-04-13T10:07:06.804Z,14.60
2023-04-13T10:09:35.167Z,14.40
2023-04-13T10:12:04.894Z,14.30
2023-04-13T10:14:37.064Z,14.20
2023-04-13T10:17:39.411Z,14.20
2023-04-13T10:20:13.667Z,14.10
2023-04-13T10:22:44.987Z,14.00
2023-04-13T10:25:31.420Z,14.00
2023-04-13T10:28:02.049Z,13.80
2023-04-13T10:30:30.663Z,13.70
2023-04-13T10:33:07.882Z,14.00
2023-04-13T10:35:39.465Z,14.20
2023-04-13T10:38:10.777Z,14.70
2023-04-13T10:40:46.918Z,14.70
2023-04-13T10:43:27.275Z,15.10
2023-04-13T10:46:07.334Z,15.60
2023-04-13T10:48:37.320Z,16.10
2023-04-13T10:51:05.910Z,16.30
2023-04-13T10:53:35.536Z,16.30
2023-04-13T10:56:05.189Z,16.20
2023-04-13T10:58:34.486Z,16.50
2023-04-13T11:01:03.351Z,16.20
2023-04-13T11:03:31.896Z,15.70
2023-04-13T11:06:02.467Z,15.80
2023-04-13T11:08:32.917Z,15.90
2023-04-13T11:11:01.492Z,16.10
2023-04-13T11:13:30.561Z,15.60
2023-04-13T11:16:03.066Z,15.10
2023-04-13T11:18:31.562Z,15.30
2023-04-13T11:21:05.855Z,15.50
2023-04-13T11:23:36.193Z,15.10
2023-04-13T11:26:04.883Z,15.50
2023-04-13T11:28:43.710Z,15.80
2023-04-13T11:31:13.071Z,16.00
2023-04-13T11:33:41.500Z,16.30
2023-04-13T11:36:12.776Z,16.30
2023-04-13T11:38:42.179Z,16.40
2023-04-13T11:43:43.084Z,16.60
2023-04-13T11:46:13.710Z,16.80
2023-04-13T11:48:42.457Z,16.80
2023-04-13T11:51:12.861Z,16.80
2023-04-13T11:53:41.488Z,16.40
2023-04-13T11:56:09.919Z,16.80
2023-04-13T11:58:39.852Z,17.00
2023-04-13T12:03:53.601Z,17.20
2023-04-13T12:06:32.742Z,17.10
2023-04-13T12:09:09.077Z,17.00
2023-04-13T12:11:42.357Z,16.50
2023-04-13T12:19:27.564Z,16.60
2023-04-13T12:22:00.407Z,16.90
2023-04-13T12:24:39.421Z,16.40
2023-04-13T12:29:39.940Z,16.50
2023-04-13T12:32:14.407Z,16.40
2023-04-13T12:34:43.935Z,16.20
2023-04-13T12:37:13.746Z,16.20
2023-04-13T12:39:43.375Z,16.40
2023-04-13T12:42:12.201Z,16.50
2023-04-13T12:44:40.617Z,16.90
2023-04-13T12:47:09.051Z,16.60
2023-04-13T12:49:37.232Z,16.80
2023-04-13T12:52:05.806Z,16.30
2023-04-13T12:54:35.274Z,16.40
2023-04-13T12:57:03.462Z,16.50
2023-04-13T12:59:31.582Z,16.90
2023-04-13T13:01:59.748Z,16.90
2023-04-13T13:04:30.224Z,16.30
2023-04-13T13:06:58.425Z,16.70
2023-04-13T13:09:27.091Z,16.90
2023-04-13T13:11:57.596Z,17.20
2023-04-13T13:14:25.873Z,17.40
2023-04-13T13:16:54.372Z,16.60
2023-04-13T13:19:22.587Z,16.80
2023-04-13T13:21:50.758Z,16.90
2023-04-13T13:24:19.364Z,17.10
2023-04-13T13:29:24.181Z,17.70
2023-04-13T13:31:52.676Z,17.30
2023-04-13T13:34:21.377Z,17.50
2023-04-13T13:36:49.599Z,17.70
2023-04-13T13:39:21.014Z,17.80
2023-04-13T13:41:49.159Z,17.90
2023-04-13T13:44:17.628Z,18.10
2023-04-13T13:46:47.124Z,17.30
2023-04-13T13:49:15.193Z,17.30
2023-04-13T13:51:43.994Z,17.80
2023-04-13T13:54:12.123Z,17.70
2023-04-13T13:56:40.275Z,17.60
2023-04-13T13:59:08.699Z,17.40
2023-04-13T14:01:38.047Z,17.30
2023-04-13T14:04:08.084Z,17.00
2023-04-13T14:06:36.227Z,17.20
2023-04-13T14:09:05.268Z,17.60
2023-04-13T14:11:34.203Z,17.30
2023-04-13T14:14:10.896Z,16.90
2023-04-13T14:16:43.207Z,17.10
2023-04-13T14:19:13.070Z,17.50
2023-04-13T14:21:42.605Z,17.40
2023-04-13T14:24:11.117Z,17.60
2023-04-13T14:26:39.197Z,17.50
2023-04-13T14:29:07.966Z,17.50
2023-04-13T14:31:36.180Z,17.70
2023-04-13T14:34:04.666Z,17.50
2023-04-13T14:36:34.392Z,17.60
2023-04-13T14:39:03.659Z,17.30
2023-04-13T14:41:32.171Z,16.10
2023-04-13T14:44:00.463Z,16.70
2023-04-13T14:46:28.877Z,16.80
2023-04-13T14:48:57.522Z,17.00
2023-04-13T14:51:25.755Z,16.50
2023-04-13T14:53:56.420Z,16.80
2023-04-13T14:56:26.420Z,17.00
2023-04-13T14:58:54.830Z,16.60
2023-04-13T15:01:24.353Z,16.60
2023-04-13T15:03:54.507Z,16.70
2023-04-13T15:06:23.113Z,16.70
2023-04-13T15:08:51.517Z,16.60
2023-04-13T15:11:21.319Z,16.60
2023-04-13T15:13:49.882Z,16.80
2023-04-13T15:16:17.983Z,16.80
2023-04-13T15:18:46.499Z,16.60
2023-04-13T15:21:14.595Z,16.80
2023-04-13T15:23:42.753Z,16.90
2023-04-13T15:26:18.164Z,16.80
2023-04-13T15:28:47.834Z,16.90
2023-04-13T15:31:16.438Z,16.80
2023-04-13T15:33:44.528Z,16.60
2023-04-13T15:36:15.911Z,16.60
2023-04-13T15:38:44.160Z,16.80
2023-04-13T15:41:12.392Z,16.70
2023-04-13T15:43:41.334Z,16.30
2023-04-13T15:46:11.306Z,16.40
2023-04-13T15:48:39.740Z,16.40
2023-04-13T15:51:08.389Z,16.40
2023-04-13T15:53:36.634Z,16.30
2023-04-13T15:56:05.072Z,15.90
2023-04-13T15:58:33.139Z,16.20
2023-04-13T16:01:03.829Z,16.30
2023-04-13T16:03:34.974Z,16.50
2023-04-13T16:06:03.887Z,16.10
2023-04-13T16:08:32.511Z,16.40
2023-04-13T16:11:01.400Z,16.50
2023-04-13T16:13:47.378Z,16.50
2023-04-13T16:16:18.437Z,16.60
2023-04-13T16:18:48.291Z,16.50
2023-04-13T16:21:19.452Z,16.40
2023-04-13T16:23:47.620Z,16.30
2023-04-13T16:26:15.698Z,16.30
2023-04-13T16:28:43.958Z,16.10
2023-04-13T16:31:12.232Z,16.10
2023-04-13T16:33:40.335Z,16.10
2023-04-13T16:36:11.100Z,16.10
2023-04-13T16:38:40.604Z,16.20
2023-04-13T16:41:08.933Z,16.20
2023-04-13T16:43:37.124Z,16.10
2023-04-13T16:46:06.122Z,16.10
2023-04-13T16:48:34.261Z,16.00
2023-04-13T16:51:03.478Z,16.10
2023-04-13T16:53:33.197Z,15.90
2023-04-13T16:56:01.282Z,16.10
2023-04-13T16:58:29.410Z,16.00
2023-04-13T17:00:57.567Z,15.80
2023-04-13T17:03:25.893Z,15.60
2023-04-13T17:05:55.414Z,15.60
2023-04-13T17:08:23.794Z,15.60
2023-04-13T17:10:53.298Z,15.60
2023-04-13T17:13:21.820Z,15.50
2023-04-13T17:15:49.950Z,15.60
2023-04-13T17:18:18.225Z,15.40
2023-04-13T17:20:53.588Z,15.30
2023-04-13T17:23:22.664Z,15.30
2023-04-13T17:25:52.721Z,15.20
2023-04-13T17:28:23.112Z,15.20
2023-04-13T17:30:51.255Z,15.20
2023-04-13T17:33:20.055Z,15.20
2023-04-13T17:35:48.128Z,14.90
2023-04-13T17:38:16.237Z,14.90
2023-04-13T17:40:45.688Z,14.80
2023-04-13T17:43:15.237Z,14.60
2023-04-13T17:45:43.427Z,14.60
2023-04-13T17:48:11.650Z,14.60
2023-04-13T17:50:40.130Z,14.60
2023-04-13T17:53:08.232Z,14.50
2023-04-13T17:55:37.712Z,14.40
2023-04-13T17:58:06.211Z,14.40
2023-04-13T18:00:36.050Z,14.30
2023-04-13T18:03:05.716Z,14.20
2023-04-13T18:05:33.986Z,14.10
2023-04-13T18:08:02.131Z,14.10
2023-04-13T18:10:31.309Z,14.00
2023-04-13T18:13:00.943Z,13.90
2023-04-13T18:15:29.386Z,13.80
2023-04-13T18:17:59.486Z,13.70
2023-04-13T18:20:27.731Z,13.60
2023-04-13T18:22:56.072Z,13.60
2023-04-13T18:25:24.175Z,13.50
2023-04-13T18:27:52.303Z,13.40
2023-04-13T18:30:21.058Z,13.40
2023-04-13T18:32:51.646Z,13.40
2023-04-13T18:35:21.337Z,13.30
2023-04-13T18:37:49.811Z,13.20
2023-04-13T18:40:17.929Z,13.20
2023-04-13T18:42:50.244Z,13.10
2023-04-13T18:45:19.726Z,13.00
2023-04-13T18:47:47.885Z,12.90
2023-04-13T18:50:16.614Z,12.90
2023-04-13T18:52:46.153Z,12.90
2023-04-13T18:55:14.429Z,12.80
2023-04-13T18:57:42.963Z,12.70
2023-04-13T19:00:12.256Z,12.70
2023-04-13T19:02:41.396Z,12.60
2023-04-13T19:05:13.403Z,12.60
2023-04-13T19:07:42.742Z,12.50
2023-04-13T19:10:12.546Z,12.40
2023-04-13T19:12:41.337Z,12.40
2023-04-13T19:15:09.923Z,12.30
2023-04-13T19:17:38.354Z,12.30
2023-04-13T19:20:10.596Z,12.40
2023-04-13T19:22:38.711Z,12.30
2023-04-13T19:25:14.390Z,12.20
2023-04-13T19:27:44.711Z,12.10
2023-04-13T19:30:13.689Z,12.10
2023-04-13T19:32:46.211Z,12.10
2023-04-13T19:35:14.873Z,12.10
2023-04-13T19:37:43.173Z,12.00
2023-04-13T19:40:13.772Z,12.00
2023-04-13T19:42:45.147Z,12.00
2023-04-13T19:45:17.200Z,12.00
2023-04-13T19:47:45.455Z,11.90
2023-04-13T19:50:15.599Z,11.90
2023-04-13T19:52:47.424Z,11.90
2023-04-13T19:55:15.594Z,11.80
2023-04-13T19:57:45.078Z,11.70
2023-04-13T20:00:22.733Z,11.60
2023-04-13T20:02:52.405Z,11.40
2023-04-13T20:05:21.636Z,11.40
2023-04-13T20:07:50.137Z,11.30
2023-04-13T20:10:18.665Z,11.20
2023-04-13T20:12:48.127Z,11.20
2023-04-13T20:15:16.822Z,11.10
2023-04-13T20:17:44.952Z,11.00
2023-04-13T20:20:13.569Z,10.90
2023-04-13T20:22:42.098Z,10.80
2023-04-13T20:25:11.157Z,10.70
2023-04-13T20:27:41.974Z,10.60
2023-04-13T20:30:12.914Z,10.70
2023-04-13T20:32:41.364Z,10.80
2023-04-13T20:35:10.654Z,10.70
2023-04-13T20:37:39.166Z,10.70
2023-04-13T20:40:11.118Z,10.60
2023-04-13T20:42:42.212Z,10.60
2023-04-13T20:45:14.979Z,10.50
2023-04-13T20:47:43.773Z,10.50
2023-04-13T20:50:12.940Z,10.50
2023-04-13T20:52:41.852Z,10.50
2023-04-13T20:55:12.100Z,10.40
2023-04-13T20:57:42.164Z,10.20
2023-04-13T21:00:15.584Z,10.30
2023-04-13T21:02:44.617Z,10.20
2023-04-13T21:05:12.955Z,10.20
2023-04-13T21:07:42.055Z,10.20
2023-04-13T21:10:12.146Z,10.30
2023-04-13T21:12:40.532Z,10.10
2023-04-13T21:15:10.046Z,10.00
2023-04-13T21:17:40.828Z,9.80
2023-04-13T21:20:10.056Z,9.90
2023-04-13T21:22:38.272Z,9.90
2023-04-13T21:25:07.385Z,9.90
2023-04-13T21:27:35.586Z,9.80
2023-04-13T21:30:03.716Z,9.70
2023-04-13T21:32:32.196Z,9.50
2023-04-13T21:35:01.692Z,9.10
2023-04-13T21:37:30.518Z,9.10
2023-04-13T21:39:59.086Z,9.30
2023-04-13T21:42:27.449Z,9.40
2023-04-13T21:44:57.159Z,9.40
2023-04-13T21:47:25.397Z,9.40
2023-04-13T21:49:53.496Z,9.30
2023-04-13T21:52:23.022Z,9.20
2023-04-13T21:54:51.643Z,9.20
2023-04-13T21:57:20.291Z,9.20
2023-04-13T21:59:48.357Z,9.20
2023-04-13T22:02:16.848Z,9.20
2023-04-13T22:04:45.016Z,9.30
2023-04-13T22:07:13.255Z,9.30
2023-04-13T22:09:42.724Z,9.20
2023-04-13T22:12:11.832Z,9.20
2023-04-13T22:14:39.935Z,9.10
2023-04-13T22:17:08.149Z,9.10
2023-04-13T22:19:36.229Z,9.10
2023-04-13T22:22:04.672Z,9.00
2023-04-13T22:24:32.771Z,9.00
2023-04-13T22:27:04.736Z,8.90
2023-04-13T22:29:33.182Z,8.70
2023-04-13T22:32:01.744Z,8.60
2023-04-13T22:34:29.809Z,8.70
2023-04-13T22:36:57.924Z,8.60
2023-04-13T22:39:26.005Z,8.50
2023-04-13T22:41:54.400Z,8.30
2023-04-13T22:44:23.828Z,8.20
2023-04-13T22:46:54.990Z,7.90
2023-04-13T22:49:23.104Z,8.00
2023-04-13T22:51:51.543Z,8.20
2023-04-13T22:54:19.616Z,8.30
2023-04-13T22:56:48.490Z,8.30
2023-04-13T22:59:17.597Z,8.30
2023-04-13T23:01:47.294Z,8.30
2023-04-13T23:04:16.251Z,8.30
2023-04-13T23:06:45.063Z,8.30
2023-04-13T23:09:13.165Z,8.20
2023-04-13T23:11:41.516Z,8.20
2023-04-13T23:14:09.827Z,8.20
2023-04-13T23:16:38.056Z,8.20
2023-04-13T23:19:07.847Z,8.20
2023-04-13T23:21:36.103Z,8.10
2023-04-13T23:24:04.256Z,7.90
2023-04-13T23:26:32.781Z,7.70
2023-04-13T23:29:01.284Z,7.60
2023-04-13T23:31:30.482Z,7.50
2023-04-13T23:33:59.028Z,7.50
2023-04-13T23:36:28.770Z,7.40
2023-04-13T23:38:57.672Z,6.40
2023-04-13T23:41:25.885Z,6.00
2023-04-13T23:43:54.271Z,6.30
2023-04-13T23:46:23.492Z,6.50
2023-04-13T23:48:51.963Z,7.00
2023-04-13T23:51:20.328Z,7.10
2023-04-13T23:53:49.802Z,7.10
2023-04-13T23:56:18.008Z,7.10
2023-04-13T23:58:46.408Z,7.20
